Time;durP1;ratioP1;P1;durP2;ratioP2;P2;SDS_P1;SDS_P2;PMS_P1;PMS_P2;Temp;Humidity;BMP_temperature;BMP_pressure;BME280_temperature;BME280_humidity;BME280_pressure;Samples;Min_cycle;Max_cycle;Signal;HPM_P1;HPM_P2
2023/07/05 06:43:25;;;;;;;4.05;2.00;;;;;;;;;;6217735;23;20082;-94
2023/07/05 06:45:55;;;;;;;4.70;1.98;;;;;;;;;;6215764;23;20027;-92
2023/07/05 06:48:22;;;;;;;2.25;1.75;;;;;;;;;;6213297;23;20075;-91
2023/07/05 06:50:51;;;;;;;5.95;3.40;;;;;;;;;;6212766;23;20107;-94
2023/07/05 06:53:18;;;;;;;3.17;2.30;;;;;;;;;;6208180;23;20051;-92
2023/07/05 06:55:44;;;;;;;4.72;2.80;;;;;;;;;;6183290;23;20016;-88
2023/07/05 06:58:11;;;;;;;5.32;2.58;;;;;;;;;;6210376;23;20016;-94
2023/07/05 07:00:37;;;;;;;3.95;2.30;;;;;;;;;;6217961;23;20529;-93
2023/07/05 07:03:04;;;;;;;4.45;1.95;;;;;;;;;;6211178;23;20017;-91
2023/07/05 07:05:35;;;;;;;3.88;2.30;;;;;;;;;;6214496;23;20100;-93
2023/07/05 07:08:02;;;;;;;4.13;2.50;;;;;;;;;;6216561;23;20082;-93
2023/07/05 07:10:28;;;;;;;4.47;1.90;;;;;;;;;;6213026;23;20356;-92
2023/07/05 07:12:55;;;;;;;3.55;2.38;;;;;;;;;;6214361;23;20019;-92
2023/07/05 07:15:21;;;;;;;2.63;2.03;;;;;;;;;;6209860;23;20044;-86
2023/07/05 07:17:47;;;;;;;3.67;2.17;;;;;;;;;;6210388;23;20012;-91
2023/07/05 07:20:14;;;;;;;4.88;1.92;;;;;;;;;;6182371;23;20024;-92
2023/07/05 07:22:40;;;;;;;4.82;2.47;;;;;;;;;;6213046;23;20332;-91
2023/07/05 07:25:07;;;;;;;3.72;2.50;;;;;;;;;;6209960;23;20079;-88
2023/07/05 07:27:33;;;;;;;4.78;2.17;;;;;;;;;;6209399;23;20009;-86
2023/07/05 07:29:59;;;;;;;4.30;2.03;;;;;;;;;;6211148;23;20025;-90
2023/07/05 07:32:25;;;;;;;4.68;1.70;;;;;;;;;;6210029;23;20316;-88
2023/07/05 07:34:53;;;;;;;3.30;2.08;;;;;;;;;;6209475;23;20087;-82
2023/07/05 07:37:19;;;;;;;5.18;2.47;;;;;;;;;;6207371;23;20381;-86
2023/07/05 07:39:45;;;;;;;2.95;1.83;;;;;;;;;;6209916;23;20013;-84
2023/07/05 07:42:11;;;;;;;4.05;1.70;;;;;;;;;;6208831;23;20071;-90
2023/07/05 07:44:37;;;;;;;2.65;1.27;;;;;;;;;;6211081;23;20017;-94
2023/07/05 07:47:04;;;;;;;1.55;1.05;;;;;;;;;;6207626;23;20019;-85
2023/07/05 07:49:30;;;;;;;3.20;1.30;;;;;;;;;;6209267;23;20084;-88
2023/07/05 07:51:56;;;;;;;2.15;1.33;;;;;;;;;;6209143;23;20009;-83
2023/07/05 07:54:28;;;;;;;0.75;0.70;;;;;;;;;;6206752;23;20020;-90
2023/07/05 07:56:55;;;;;;;1.50;0.52;;;;;;;;;;6208899;23;20016;-85
2023/07/05 07:59:21;;;;;;;1.05;0.65;;;;;;;;;;6208721;23;20088;-88
2023/07/05 08:01:48;;;;;;;0.95;0.70;;;;;;;;;;6208291;23;20012;-90
2023/07/05 08:04:14;;;;;;;0.73;0.40;;;;;;;;;;6207716;23;20035;-85
2023/07/05 08:06:40;;;;;;;0.85;0.70;;;;;;;;;;6209107;23;20383;-87
2023/07/05 08:09:08;;;;;;;0.60;0.47;;;;;;;;;;6209305;23;20008;-88
2023/07/05 08:11:34;;;;;;;1.08;0.60;;;;;;;;;;6208583;23;20786;-90
2023/07/05 08:14:01;;;;;;;1.33;0.60;;;;;;;;;;6210819;23;20059;-88
2023/07/05 08:16:27;;;;;;;1.52;0.52;;;;;;;;;;6209190;23;20446;-92
2023/07/05 08:18:53;;;;;;;2.00;0.47;;;;;;;;;;6208255;23;20051;-87
2023/07/05 08:21:19;;;;;;;0.10;0.10;;;;;;;;;;6209945;23;20012;-91
2023/07/05 08:23:46;;;;;;;1.00;0.52;;;;;;;;;;6210557;23;20366;-93
2023/07/05 08:26:12;;;;;;;0.35;0.25;;;;;;;;;;6212999;23;20012;-92
2023/07/05 08:28:39;;;;;;;1.88;0.38;;;;;;;;;;6212968;23;20013;-93
2023/07/05 08:31:06;;;;;;;1.00;0.40;;;;;;;;;;6212778;23;20430;-93
2023/07/05 08:33:33;;;;;;;0.77;0.40;;;;;;;;;;6214119;23;20031;-93
2023/07/05 08:36:19;;;;;;;0.98;0.47;;;;;;;;;;6214673;23;20024;-92
2023/07/05 08:38:49;;;;;;;0.30;0.30;;;;;;;;;;6220720;23;20016;-90
2023/07/05 08:41:21;;;;;;;0.95;0.43;;;;;;;;;;6222341;23;20032;-93
2023/07/05 08:43:51;;;;;;;1.00;0.52;;;;;;;;;;6224108;23;20021;-94
2023/07/05 08:46:17;;;;;;;1.60;0.50;;;;;;;;;;6225741;23;20008;-93
2023/07/05 08:48:44;;;;;;;0.90;0.90;;;;;;;;;;6219934;23;20373;-96
2023/07/05 08:51:11;;;;;;;1.45;0.50;;;;;;;;;;6228928;23;20020;-88
2023/07/05 08:53:42;;;;;;;2.65;0.75;;;;;;;;;;6225347;23;20025;-92
2023/07/05 08:56:15;;;;;;;1.95;0.70;;;;;;;;;;6215621;23;20612;-92
2023/07/05 08:58:43;;;;;;;1.63;0.38;;;;;;;;;;6210062;23;20020;-90
2023/07/05 09:01:12;;;;;;;1.50;0.73;;;;;;;;;;6208907;23;20029;-92
2023/07/05 09:03:38;;;;;;;1.20;0.70;;;;;;;;;;6211360;23;20100;-95
2023/07/05 09:06:10;;;;;;;0.80;0.55;;;;;;;;;;6214753;23;20013;-95
2023/07/05 09:08:43;;;;;;;0.43;0.25;;;;;;;;;;6211001;23;20430;-92
2023/07/05 09:11:27;;;;;;;2.70;0.47;;;;;;;;;;6211803;23;20468;-92
2023/07/05 09:14:02;;;;;;;0.05;0.03;;;;;;;;;;6209318;23;20385;-95
2023/07/05 09:16:44;;;;;;;2.50;0.73;;;;;;;;;;6209629;23;20013;-91
2023/07/05 09:19:27;;;;;;;1.75;0.60;;;;;;;;;;6185876;23;20342;-94
2023/07/05 09:22:01;;;;;;;2.53;0.70;;;;;;;;;;6208906;23;20026;-90
2023/07/05 09:24:32;;;;;;;1.95;0.50;;;;;;;;;;6210468;23;20023;-88
2023/07/05 09:27:19;;;;;;;0.68;0.47;;;;;;;;;;6209076;23;20032;-90
2023/07/05 09:29:52;;;;;;;2.83;0.77;;;;;;;;;;6207751;23;20090;-91
2023/07/05 09:32:19;;;;;;;2.28;0.50;;;;;;;;;;6206954;23;20354;-93
2023/07/05 09:34:55;;;;;;;0.88;0.30;;;;;;;;;;6210362;23;20008;-89
2023/07/05 09:37:26;;;;;;;3.25;0.85;;;;;;;;;;6210222;23;20058;-87
2023/07/05 09:40:11;;;;;;;0.95;0.63;;;;;;;;;;6209436;23;20091;-88
2023/07/05 09:42:42;;;;;;;0.85;0.22;;;;;;;;;;6210491;23;20023;-91
2023/07/05 09:45:11;;;;;;;5.55;0.95;;;;;;;;;;6210970;23;20013;-92
2023/07/05 09:47:37;;;;;;;4.38;1.00;;;;;;;;;;6211273;23;20023;-94
2023/07/05 09:50:17;;;;;;;1.55;0.77;;;;;;;;;;6211883;23;20370;-92
2023/07/05 09:52:45;;;;;;;1.90;0.63;;;;;;;;;;6213367;23;20024;-92
2023/07/05 09:55:15;;;;;;;2.60;0.95;;;;;;;;;;6211290;23;20020;-94
2023/07/05 09:57:42;;;;;;;3.83;0.38;;;;;;;;;;6212403;23;20102;-92
2023/07/05 10:00:25;;;;;;;1.60;1.05;;;;;;;;;;6212122;23;20021;-91
2023/07/05 10:02:56;;;;;;;3.47;1.10;;;;;;;;;;6213567;23;20116;-91
2023/07/05 10:05:27;;;;;;;4.10;1.02;;;;;;;;;;6215691;23;20333;-94
2023/07/05 10:07:55;;;;;;;3.17;0.60;;;;;;;;;;6215326;23;20015;-94
2023/07/05 10:10:24;;;;;;;1.77;0.70;;;;;;;;;;6220698;23;20013;-93
2023/07/05 10:12:58;;;;;;;1.73;0.73;;;;;;;;;;6217031;23;20020;-88
2023/07/05 10:15:25;;;;;;;0.63;0.22;;;;;;;;;;6213324;23;20040;-89
2023/07/05 10:17:53;;;;;;;0.60;0.50;;;;;;;;;;6213830;23;20295;-90
2023/07/05 10:20:21;;;;;;;3.92;0.90;;;;;;;;;;6184263;23;20019;-93
2023/07/05 10:22:47;;;;;;;2.58;1.05;;;;;;;;;;6208995;23;20016;-91
2023/07/05 10:25:19;;;;;;;1.13;0.68;;;;;;;;;;6216217;23;20016;-88
2023/07/05 10:27:48;;;;;;;0.70;0.45;;;;;;;;;;6214896;23;20056;-88
2023/07/05 10:30:15;;;;;;;1.83;0.70;;;;;;;;;;6210541;23;20020;-89
2023/07/05 10:32:43;;;;;;;1.98;1.00;;;;;;;;;;6186603;23;20333;-88
2023/07/05 10:35:31;;;;;;;1.52;0.70;;;;;;;;;;6208795;23;20024;-94
2023/07/05 10:37:57;;;;;;;;;;;;;;;;;;6208601;23;20012;-92
2023/07/05 10:40:23;;;;;;;3.78;0.77;;;;;;;;;;6207548;23;20344;-92
2023/07/05 10:43:01;;;;;;;2.47;0.60;;;;;;;;;;6205621;23;20024;-88
2023/07/05 10:45:34;;;;;;;1.95;0.95;;;;;;;;;;6183756;23;20051;-87
2023/07/05 10:48:01;;;;;;;3.22;0.85;;;;;;;;;;6207493;23;20013;-88
2023/07/05 10:50:29;;;;;;;1.42;1.15;;;;;;;;;;6206515;23;20019;-87
2023/07/05 10:52:58;;;;;;;1.65;0.77;;;;;;;;;;6207505;23;20016;-89
2023/07/05 10:55:28;;;;;;;1.77;0.60;;;;;;;;;;6210215;23;20071;-88
2023/07/05 10:58:09;;;;;;;2.45;0.70;;;;;;;;;;6210581;23;20009;-90
2023/07/05 11:00:40;;;;;;;2.20;0.88;;;;;;;;;;6184031;23;20059;-91
2023/07/05 11:03:16;;;;;;;2.83;1.55;;;;;;;;;;6207880;23;20017;-92
2023/07/05 11:05:44;;;;;;;1.08;0.80;;;;;;;;;;6206847;23;20023;-94
2023/07/05 11:08:18;;;;;;;2.75;1.08;;;;;;;;;;6209342;23;20083;-84
2023/07/05 11:10:45;;;;;;;1.98;0.65;;;;;;;;;;6210834;23;20016;-91
2023/07/05 11:13:18;;;;;;;3.67;0.95;;;;;;;;;;6208132;23;20027;-90
2023/07/05 11:15:44;;;;;;;3.67;0.90;;;;;;;;;;6208389;23;20066;-89
2023/07/05 11:18:17;;;;;;;1.70;0.40;;;;;;;;;;6211072;23;20342;-92
2023/07/05 11:20:46;;;;;;;4.55;1.23;;;;;;;;;;6210054;23;20063;-89
2023/07/05 11:23:13;;;;;;;2.47;0.85;;;;;;;;;;6213552;23;20020;-91
2023/07/05 11:25:55;;;;;;;3.60;0.88;;;;;;;;;;6212940;23;20023;-87
2023/07/05 11:28:31;;;;;;;3.35;0.80;;;;;;;;;;6210163;23;20051;-86
2023/07/05 11:30:57;;;;;;;1.52;0.52;;;;;;;;;;6209403;23;20052;-88
2023/07/05 11:33:23;;;;;;;0.57;0.50;;;;;;;;;;6209085;23;20520;-87
2023/07/05 11:35:49;;;;;;;2.90;0.90;;;;;;;;;;6208368;23;20070;-89
2023/07/05 11:38:34;;;;;;;3.15;0.77;;;;;;;;;;6209705;23;20017;-88
2023/07/05 11:41:00;;;;;;;4.40;0.70;;;;;;;;;;6209116;23;20066;-88
2023/07/05 11:43:32;;;;;;;1.73;0.90;;;;;;;;;;6208680;23;20025;-88
2023/07/05 11:45:58;;;;;;;0.60;0.40;;;;;;;;;;6209216;23;20024;-90
2023/07/05 11:48:36;;;;;;;2.95;0.98;;;;;;;;;;6208814;23;20016;-89
2023/07/05 11:51:03;;;;;;;2.55;0.90;;;;;;;;;;6209087;23;20013;-88
2023/07/05 11:53:32;;;;;;;3.85;1.23;;;;;;;;;;6207755;23;20319;-85
2023/07/05 11:56:00;;;;;;;3.80;1.27;;;;;;;;;;6210001;23;20020;-87
2023/07/05 11:58:30;;;;;;;5.28;0.88;;;;;;;;;;6206858;23;20020;-83
2023/07/05 12:00:58;;;;;;;;;;;;;;;;;;6206979;23;20092;-87
2023/07/05 12:03:25;;;;;;;5.43;1.75;;;;;;;;;;6208130;23;20226;-86
2023/07/05 12:05:54;;;;;;;5.25;1.40;;;;;;;;;;6209392;23;20361;-86
2023/07/05 12:08:24;;;;;;;2.78;1.17;;;;;;;;;;6206444;23;20021;-87
2023/07/05 12:10:55;;;;;;;1.67;1.02;;;;;;;;;;6209757;23;20186;-85
2023/07/05 12:13:24;;;;;;;2.38;1.30;;;;;;;;;;6209352;23;20016;-90
2023/07/05 12:15:53;;;;;;;3.40;1.20;;;;;;;;;;6207017;23;20054;-92
2023/07/05 12:18:19;;;;;;;1.98;0.95;;;;;;;;;;6207213;23;20047;-92
2023/07/05 12:20:48;;;;;;;2.47;1.27;;;;;;;;;;6209289;23;20048;-85
2023/07/05 12:23:15;;;;;;;2.70;1.48;;;;;;;;;;6208237;23;20476;-85
2023/07/05 12:25:42;;;;;;;3.97;1.25;;;;;;;;;;6209824;23;20012;-94
2023/07/05 12:28:15;;;;;;;4.47;1.35;;;;;;;;;;6209225;23;20016;-89
2023/07/05 12:30:41;;;;;;;2.78;1.15;;;;;;;;;;6207237;23;20040;-84
2023/07/05 12:33:24;;;;;;;2.65;1.15;;;;;;;;;;6208334;23;20041;-86
2023/07/05 12:36:05;;;;;;;4.18;1.20;;;;;;;;;;6205957;23;20013;-91
2023/07/05 12:38:35;;;;;;;3.97;1.27;;;;;;;;;;6209398;23;20421;-93
2023/07/05 12:41:02;;;;;;;1.92;0.90;;;;;;;;;;6214456;23;20488;-87
2023/07/05 12:43:29;;;;;;;4.50;1.88;;;;;;;;;;6211786;23;20092;-90
2023/07/05 12:46:15;;;;;;;4.05;0.80;;;;;;;;;;6210259;23;20016;-88
2023/07/05 12:48:41;;;;;;;4.88;1.23;;;;;;;;;;6211644;23;20013;-94
2023/07/05 12:51:13;;;;;;;2.25;1.15;;;;;;;;;;6210741;23;20055;-87
2023/07/05 12:53:39;;;;;;;5.63;1.42;;;;;;;;;;6210633;23;20025;-87
2023/07/05 12:56:10;;;;;;;4.07;1.20;;;;;;;;;;6211543;23;20017;-94
2023/07/05 12:58:38;;;;;;;7.20;2.35;;;;;;;;;;6211131;23;20062;-89
2023/07/05 13:01:04;;;;;;;4.38;0.95;;;;;;;;;;6208859;23;20024;-93
2023/07/05 13:03:31;;;;;;;7.63;2.05;;;;;;;;;;6212619;23;20013;-90
2023/07/05 13:05:58;;;;;;;4.70;1.63;;;;;;;;;;6210026;23;20023;-91
2023/07/05 13:08:25;;;;;;;2.55;1.98;;;;;;;;;;6212467;23;20083;-93
2023/07/05 13:10:51;;;;;;;5.47;2.15;;;;;;;;;;6189162;23;20115;-91
2023/07/05 13:13:27;;;;;;;4.10;1.42;;;;;;;;;;6211460;23;20016;-84
2023/07/05 13:15:53;;;;;;;9.10;2.22;;;;;;;;;;6187374;23;20064;-91
2023/07/05 13:18:25;;;;;;;5.43;2.33;;;;;;;;;;6211033;23;20119;-91
2023/07/05 13:21:06;;;;;;;9.85;3.05;;;;;;;;;;6212131;23;20016;-88
2023/07/05 13:23:32;;;;;;;8.27;2.67;;;;;;;;;;6216799;23;20072;-89
2023/07/05 13:25:58;;;;;;;8.32;2.53;;;;;;;;;;6228966;23;20054;-89
2023/07/05 13:28:25;;;;;;;7.60;2.20;;;;;;;;;;6211621;23;20013;-92
2023/07/05 13:30:52;;;;;;;4.43;1.40;;;;;;;;;;6215998;23;20064;-87
2023/07/05 13:33:19;;;;;;;0.93;0.57;;;;;;;;;;6214477;23;20506;-89
2023/07/05 13:35:46;;;;;;;1.42;0.90;;;;;;;;;;6211666;23;20021;-92
2023/07/05 13:38:13;;;;;;;3.47;1.48;;;;;;;;;;6210700;23;20017;-86
2023/07/05 13:40:49;;;;;;;7.03;2.03;;;;;;;;;;6213227;23;20023;-89
2023/07/05 13:43:16;;;;;;;5.25;2.50;;;;;;;;;;6212095;23;20016;-91
2023/07/05 13:45:42;;;;;;;4.60;1.90;;;;;;;;;;6214704;23;20057;-93
2023/07/05 13:48:08;;;;;;;7.45;2.28;;;;;;;;;;6217711;23;20013;-89
2023/07/05 13:50:34;;;;;;;4.80;2.10;;;;;;;;;;6212028;23;20066;-91
2023/07/05 13:53:01;;;;;;;6.35;1.70;;;;;;;;;;6213963;23;20024;-86
2023/07/05 13:55:27;;;;;;;5.85;2.17;;;;;;;;;;6207743;23;20087;-89
2023/07/05 13:57:54;;;;;;;2.55;1.70;;;;;;;;;;6214099;23;20079;-92
2023/07/05 14:00:21;;;;;;;2.75;1.63;;;;;;;;;;6215079;23;20016;-88
2023/07/05 14:02:49;;;;;;;3.65;1.27;;;;;;;;;;6218584;23;20068;-94
2023/07/05 14:05:17;;;;;;;2.70;1.90;;;;;;;;;;6221434;23;20023;-85
2023/07/05 14:07:43;;;;;;;5.00;1.85;;;;;;;;;;6218180;23;20378;-94
2023/07/05 14:10:12;;;;;;;3.13;1.80;;;;;;;;;;6219405;23;20066;-89
2023/07/05 14:12:38;;;;;;;6.25;2.10;;;;;;;;;;6215856;23;20032;-95
2023/07/05 14:15:05;;;;;;;3.75;1.58;;;;;;;;;;6210164;23;20059;-89
2023/07/05 14:17:32;;;;;;;4.03;1.98;;;;;;;;;;6213512;23;20013;-91
2023/07/05 14:19:59;;;;;;;5.32;1.60;;;;;;;;;;6208896;23;20721;-90
2023/07/05 14:22:25;;;;;;;4.07;1.90;;;;;;;;;;6209289;23;20059;-87
2023/07/05 14:24:52;;;;;;;4.55;1.83;;;;;;;;;;6208586;23;20013;-87
2023/07/05 14:27:18;;;;;;;3.17;2.05;;;;;;;;;;6184552;23;20016;-89
2023/07/05 14:29:45;;;;;;;3.03;2.17;;;;;;;;;;6213998;23;20016;-93
2023/07/05 14:32:15;;;;;;;3.72;1.70;;;;;;;;;;6214638;23;20020;-84
2023/07/05 14:34:42;;;;;;;4.22;1.83;;;;;;;;;;6209763;23;20021;-91
2023/07/05 14:37:08;;;;;;;4.75;1.55;;;;;;;;;;6212492;23;20028;-88
2023/07/05 14:39:34;;;;;;;4.88;1.65;;;;;;;;;;6187452;23;20020;-90
2023/07/05 14:42:01;;;;;;;1.95;0.95;;;;;;;;;;6183563;23;20027;-84
2023/07/05 14:44:27;;;;;;;1.73;1.08;;;;;;;;;;6210469;23;20021;-88
2023/07/05 14:46:53;;;;;;;3.65;1.65;;;;;;;;;;6209605;23;20092;-92
2023/07/05 14:49:19;;;;;;;3.45;2.00;;;;;;;;;;6209008;23;20020;-90
2023/07/05 14:51:45;;;;;;;3.13;1.50;;;;;;;;;;6207192;23;20422;-86
2023/07/05 14:54:12;;;;;;;4.65;1.60;;;;;;;;;;6206827;23;20017;-89
2023/07/05 14:56:38;;;;;;;1.60;1.10;;;;;;;;;;6209497;23;20070;-87
2023/07/05 14:59:08;;;;;;;6.88;2.55;;;;;;;;;;6207724;23;20016;-90
2023/07/05 15:01:34;;;;;;;3.40;1.55;;;;;;;;;;6211516;23;20095;-94
2023/07/05 15:04:01;;;;;;;2.50;1.70;;;;;;;;;;6209499;23;20017;-93
2023/07/05 15:06:27;;;;;;;3.22;1.70;;;;;;;;;;6206649;23;20013;-90
2023/07/05 15:08:54;;;;;;;2.20;1.50;;;;;;;;;;6208127;23;20334;-92
2023/07/05 15:11:20;;;;;;;3.30;1.45;;;;;;;;;;6208468;23;20009;-91
2023/07/05 15:13:47;;;;;;;2.75;1.38;;;;;;;;;;6209349;23;20024;-92
2023/07/05 15:16:14;;;;;;;3.45;1.77;;;;;;;;;;6210546;23;20020;-89
2023/07/05 15:18:40;;;;;;;4.70;1.67;;;;;;;;;;6211079;23;20016;-90
2023/07/05 15:21:08;;;;;;;3.88;1.70;;;;;;;;;;6210486;23;20028;-90
2023/07/05 15:23:34;;;;;;;4.28;1.77;;;;;;;;;;6209198;23;20020;-92
2023/07/05 15:26:04;;;;;;;4.13;1.52;;;;;;;;;;6211941;23;20078;-88
2023/07/05 15:28:30;;;;;;;3.15;1.50;;;;;;;;;;6208918;23;20027;-88
2023/07/05 15:30:56;;;;;;;2.78;1.63;;;;;;;;;;6208850;23;20102;-89
2023/07/05 15:33:22;;;;;;;3.22;1.50;;;;;;;;;;6208460;23;20023;-90
2023/07/05 15:35:50;;;;;;;4.57;1.90;;;;;;;;;;6210133;23;20353;-84
2023/07/05 15:38:16;;;;;;;4.22;1.98;;;;;;;;;;6208502;23;20021;-94
2023/07/05 15:40:42;;;;;;;5.07;1.38;;;;;;;;;;6209180;23;20511;-86
2023/07/05 15:43:09;;;;;;;5.72;1.98;;;;;;;;;;6181943;23;20044;-86
2023/07/05 15:45:35;;;;;;;2.38;1.25;;;;;;;;;;6209068;23;20027;-88
2023/07/05 15:48:02;;;;;;;6.93;1.85;;;;;;;;;;6207045;23;20012;-91
2023/07/05 15:50:28;;;;;;;2.35;1.30;;;;;;;;;;6208459;23;20476;-85
2023/07/05 15:52:54;;;;;;;2.03;1.42;;;;;;;;;;6208924;23;20087;-83
2023/07/05 15:55:21;;;;;;;2.58;1.40;;;;;;;;;;6207589;23;20163;-87
2023/07/05 15:57:48;;;;;;;4.88;1.58;;;;;;;;;;6208603;23;20087;-93
2023/07/05 16:00:23;;;;;;;2.72;1.20;;;;;;;;;;6207778;23;20378;-89
2023/07/05 16:02:56;;;;;;;5.40;1.58;;;;;;;;;;6209363;23;20028;-88
2023/07/05 16:05:22;;;;;;;2.72;1.33;;;;;;;;;;6179429;23;20066;-86
2023/07/05 16:07:48;;;;;;;3.95;1.90;;;;;;;;;;6208706;23;20113;-88
2023/07/05 16:10:16;;;;;;;3.97;0.93;;;;;;;;;;6206623;23;20075;-92
2023/07/05 16:12:44;;;;;;;4.53;1.92;;;;;;;;;;6209594;23;20027;-91
2023/07/05 16:15:11;;;;;;;5.03;1.60;;;;;;;;;;6208029;23;20012;-85
2023/07/05 16:17:37;;;;;;;7.78;1.77;;;;;;;;;;6209217;23;20379;-88
2023/07/05 16:20:04;;;;;;;3.40;1.63;;;;;;;;;;6208451;23;20019;-90
2023/07/05 16:22:31;;;;;;;2.05;1.30;;;;;;;;;;6208079;23;20048;-88
2023/07/05 16:24:57;;;;;;;2.15;1.27;;;;;;;;;;6207925;23;20063;-86
2023/07/05 16:27:23;;;;;;;1.83;1.35;;;;;;;;;;6205774;23;20016;-87
2023/07/05 16:29:49;;;;;;;4.05;1.38;;;;;;;;;;6208379;23;20391;-88
2023/07/05 16:32:16;;;;;;;5.30;1.20;;;;;;;;;;6208094;23;20044;-87
2023/07/05 16:34:42;;;;;;;2.45;1.30;;;;;;;;;;6207409;23;20016;-88
2023/07/05 16:37:09;;;;;;;3.00;1.40;;;;;;;;;;6206724;23;20071;-90
2023/07/05 16:39:35;;;;;;;5.70;1.75;;;;;;;;;;6206611;23;20450;-87
2023/07/05 16:42:02;;;;;;;2.28;1.70;;;;;;;;;;6207491;23;20013;-87
2023/07/05 16:44:28;;;;;;;2.53;1.20;;;;;;;;;;6181254;23;20067;-90
2023/07/05 16:46:55;;;;;;;1.88;1.40;;;;;;;;;;6206750;23;20027;-83
2023/07/05 16:49:22;;;;;;;1.95;1.58;;;;;;;;;;6208739;23;20019;-84
2023/07/05 16:51:48;;;;;;;4.45;1.50;;;;;;;;;;6207084;23;20323;-84
2023/07/05 16:54:14;;;;;;;2.65;1.33;;;;;;;;;;6203844;23;20021;-86
2023/07/05 16:56:41;;;;;;;3.80;1.60;;;;;;;;;;6205617;23;20036;-85
2023/07/05 16:59:07;;;;;;;4.32;1.80;;;;;;;;;;6205897;23;20495;-85
2023/07/05 17:01:34;;;;;;;4.10;1.55;;;;;;;;;;6209362;23;20016;-91
2023/07/05 17:04:00;;;;;;;4.32;1.65;;;;;;;;;;6211464;23;20012;-94
2023/07/05 17:06:27;;;;;;;3.30;2.00;;;;;;;;;;6216859;23;20013;-93
2023/07/05 17:08:54;;;;;;;5.03;1.45;;;;;;;;;;6216917;23;20060;-94
2023/07/05 17:11:20;;;;;;;3.03;1.60;;;;;;;;;;6215270;23;20013;-94
2023/07/05 17:13:47;;;;;;;3.60;1.95;;;;;;;;;;6215692;23;20390;-93
2023/07/05 17:16:14;;;;;;;5.07;1.42;;;;;;;;;;6214244;23;20044;-95
2023/07/05 17:18:40;;;;;;;3.22;1.48;;;;;;;;;;6214149;23;20022;-96
2023/07/05 17:21:08;;;;;;;2.72;1.83;;;;;;;;;;6213223;23;20066;-89
2023/07/05 17:23:34;;;;;;;2.30;1.45;;;;;;;;;;6210059;23;20169;-86
2023/07/05 17:26:09;;;;;;;3.13;1.48;;;;;;;;;;6181150;23;20020;-88
2023/07/05 17:28:36;;;;;;;4.22;1.55;;;;;;;;;;6208616;23;20094;-84
2023/07/05 17:31:03;;;;;;;3.67;1.25;;;;;;;;;;6207134;23;20016;-87
2023/07/05 17:33:30;;;;;;;5.07;1.55;;;;;;;;;;6207223;23;20042;-84
2023/07/05 17:35:57;;;;;;;2.17;1.23;;;;;;;;;;6207084;23;20016;-90
2023/07/05 17:38:23;;;;;;;2.50;1.35;;;;;;;;;;6212473;23;20099;-86
2023/07/05 17:40:49;;;;;;;2.13;1.40;;;;;;;;;;6210511;23;20048;-87
2023/07/05 17:43:18;;;;;;;6.00;1.60;;;;;;;;;;6206967;23;20012;-87
2023/07/05 17:45:44;;;;;;;2.75;1.50;;;;;;;;;;6208849;23;20024;-88
2023/07/05 17:48:11;;;;;;;3.08;1.55;;;;;;;;;;6212347;23;20012;-88
2023/07/05 17:50:37;;;;;;;3.22;2.03;;;;;;;;;;6215031;23;20016;-93
2023/07/05 17:53:05;;;;;;;2.50;1.30;;;;;;;;;;6216269;23;20083;-87
2023/07/05 17:55:31;;;;;;;4.78;2.00;;;;;;;;;;6190830;23;20091;-92
2023/07/05 17:58:00;;;;;;;4.28;2.20;;;;;;;;;;6215332;23;20078;-94
2023/07/05 18:00:27;;;;;;;3.33;1.77;;;;;;;;;;6216797;23;20059;-92
2023/07/05 18:02:53;;;;;;;3.72;1.52;;;;;;;;;;6220338;23;20016;-92
2023/07/05 18:05:19;;;;;;;2.85;1.52;;;;;;;;;;6221834;23;20370;-94
2023/07/05 18:07:45;;;;;;;4.28;2.08;;;;;;;;;;6217933;23;20016;-90
2023/07/05 18:10:11;;;;;;;3.22;1.65;;;;;;;;;;6214380;23;20020;-96
2023/07/05 18:12:37;;;;;;;1.88;1.70;;;;;;;;;;6213478;23;20145;-94
2023/07/05 18:15:04;;;;;;;3.33;1.95;;;;;;;;;;6213536;23;20013;-91
2023/07/05 18:17:31;;;;;;;4.55;2.25;;;;;;;;;;6209336;23;20020;-93
2023/07/05 18:19:57;;;;;;;4.15;1.75;;;;;;;;;;6207776;23;20008;-93
2023/07/05 18:22:23;;;;;;;6.15;2.10;;;;;;;;;;6213049;23;20092;-91
2023/07/05 18:24:49;;;;;;;2.72;1.45;;;;;;;;;;6214694;23;20324;-91
2023/07/05 18:27:16;;;;;;;6.03;1.95;;;;;;;;;;6220685;23;20013;-94
2023/07/05 18:29:42;;;;;;;3.35;1.83;;;;;;;;;;6217273;23;20021;-95
2023/07/05 18:32:09;;;;;;;4.55;2.20;;;;;;;;;;6215770;23;20115;-93
2023/07/05 18:34:35;;;;;;;3.00;1.60;;;;;;;;;;6210107;23;20338;-94
2023/07/05 18:37:02;;;;;;;3.72;1.67;;;;;;;;;;6210218;23;20017;-90
2023/07/05 18:39:28;;;;;;;3.00;1.55;;;;;;;;;;6215365;23;20027;-96
2023/07/05 18:41:54;;;;;;;6.00;2.00;;;;;;;;;;6216233;23;20024;-96
2023/07/05 18:44:20;;;;;;;4.15;1.70;;;;;;;;;;6217928;23;20042;-94
2023/07/05 18:46:47;;;;;;;3.35;1.45;;;;;;;;;;6210162;23;20067;-88
2023/07/05 18:49:15;;;;;;;2.95;1.80;;;;;;;;;;6188590;23;20088;-90
2023/07/05 18:51:41;;;;;;;3.33;1.63;;;;;;;;;;6214456;23;20020;-92
2023/07/05 18:54:07;;;;;;;1.67;1.40;;;;;;;;;;6210032;23;20382;-89
2023/07/05 18:56:33;;;;;;;4.78;1.85;;;;;;;;;;6212067;23;20028;-92
2023/07/05 18:58:59;;;;;;;4.90;2.00;;;;;;;;;;6205924;23;20020;-87
2023/07/05 19:01:27;;;;;;;3.80;1.90;;;;;;;;;;6213213;23;20096;-86
2023/07/05 19:03:54;;;;;;;2.53;1.73;;;;;;;;;;6210569;23;20016;-93
2023/07/05 19:06:22;;;;;;;3.08;1.80;;;;;;;;;;6213221;23;20088;-90
2023/07/05 19:08:48;;;;;;;5.00;1.70;;;;;;;;;;6208645;23;20052;-91
2023/07/05 19:11:16;;;;;;;3.97;1.80;;;;;;;;;;6214159;23;20083;-93
2023/07/05 19:13:42;;;;;;;4.60;2.20;;;;;;;;;;6218741;23;20047;-94
2023/07/05 19:16:10;;;;;;;5.15;1.70;;;;;;;;;;6221781;23;20024;-88
2023/07/05 19:18:37;;;;;;;2.28;1.63;;;;;;;;;;6224204;23;20333;-90
2023/07/05 19:21:03;;;;;;;5.63;1.80;;;;;;;;;;6221316;23;20024;-89
2023/07/05 19:23:33;;;;;;;4.13;1.70;;;;;;;;;;6221626;23;20011;-91
2023/07/05 19:26:01;;;;;;;3.00;1.60;;;;;;;;;;6225472;23;20024;-93
2023/07/05 19:28:27;;;;;;;2.75;1.65;;;;;;;;;;6223646;23;20055;-90
2023/07/05 19:30:57;;;;;;;3.50;1.83;;;;;;;;;;6215439;23;20088;-94
2023/07/05 19:33:23;;;;;;;1.80;1.48;;;;;;;;;;6208482;23;20028;-89
2023/07/05 19:35:50;;;;;;;2.42;1.63;;;;;;;;;;6184912;23;20075;-91
2023/07/05 19:38:16;;;;;;;1.90;1.42;;;;;;;;;;6209692;23;20021;-91
2023/07/05 19:40:49;;;;;;;4.03;1.85;;;;;;;;;;6211599;23;20088;-91
2023/07/05 19:43:16;;;;;;;1.55;1.15;;;;;;;;;;6210342;23;20074;-91
2023/07/05 19:45:42;;;;;;;1.90;1.38;;;;;;;;;;6211695;23;20012;-90
2023/07/05 19:48:08;;;;;;;2.03;1.17;;;;;;;;;;6209043;23;20031;-92
2023/07/05 19:50:37;;;;;;;2.50;1.30;;;;;;;;;;6184415;23;20028;-92
2023/07/05 19:53:07;;;;;;;2.50;1.23;;;;;;;;;;6209431;23;20020;-91
2023/07/05 19:55:37;;;;;;;3.65;1.63;;;;;;;;;;6212070;23;20048;-90
2023/07/05 19:58:03;;;;;;;2.03;1.30;;;;;;;;;;6210173;23;20012;-91
2023/07/05 20:00:30;;;;;;;2.33;1.30;;;;;;;;;;6206563;23;20326;-84
2023/07/05 20:02:56;;;;;;;4.20;1.52;;;;;;;;;;6208048;23;20016;-88
2023/07/05 20:05:22;;;;;;;1.80;1.33;;;;;;;;;;6209013;23;20019;-88
2023/07/05 20:07:48;;;;;;;1.95;1.27;;;;;;;;;;6206440;23;20024;-88
2023/07/05 20:10:16;;;;;;;1.65;1.15;;;;;;;;;;6206705;23;20023;-87
2023/07/05 20:12:42;;;;;;;3.53;1.50;;;;;;;;;;6209229;23;20088;-88
2023/07/05 20:15:08;;;;;;;4.32;1.40;;;;;;;;;;6206870;23;20681;-88
2023/07/05 20:17:34;;;;;;;3.40;1.50;;;;;;;;;;6206073;23;20034;-88
2023/07/05 20:20:00;;;;;;;4.32;1.30;;;;;;;;;;6208495;23;20430;-87
2023/07/05 20:22:26;;;;;;;2.53;1.05;;;;;;;;;;6206711;23;20064;-88
2023/07/05 20:24:52;;;;;;;2.22;1.20;;;;;;;;;;6209011;23;20013;-88
2023/07/05 20:27:18;;;;;;;1.17;1.08;;;;;;;;;;6207624;23;20418;-88
2023/07/05 20:29:44;;;;;;;3.35;1.05;;;;;;;;;;6207869;23;20027;-88
2023/07/05 20:32:10;;;;;;;4.28;1.40;;;;;;;;;;6206351;23;20016;-88
2023/07/05 20:34:36;;;;;;;4.00;1.20;;;;;;;;;;6206107;23;20025;-89
2023/07/05 20:37:03;;;;;;;2.25;1.05;;;;;;;;;;6206491;23;20059;-87
2023/07/05 20:39:29;;;;;;;2.75;1.25;;;;;;;;;;6207437;23;20016;-88
2023/07/05 20:41:55;;;;;;;3.13;1.10;;;;;;;;;;6208480;23;20343;-88
2023/07/05 20:44:21;;;;;;;2.75;0.90;;;;;;;;;;6206445;23;20020;-87
2023/07/05 20:46:47;;;;;;;1.40;1.30;;;;;;;;;;6206504;23;20024;-88
2023/07/05 20:49:13;;;;;;;1.60;1.20;;;;;;;;;;6207118;23;20466;-87
2023/07/05 20:51:40;;;;;;;1.83;1.25;;;;;;;;;;6205351;23;20083;-88
2023/07/05 20:54:06;;;;;;;3.40;1.40;;;;;;;;;;6205677;23;20013;-88
2023/07/05 20:56:32;;;;;;;2.58;1.15;;;;;;;;;;6206378;23;20027;-87
2023/07/05 20:59:00;;;;;;;2.42;1.40;;;;;;;;;;6203406;23;20106;-88
2023/07/05 21:01:26;;;;;;;2.88;1.52;;;;;;;;;;6211621;23;20016;-89
2023/07/05 21:03:52;;;;;;;2.92;1.20;;;;;;;;;;6205823;23;20330;-88
2023/07/05 21:06:19;;;;;;;3.17;1.15;;;;;;;;;;6204661;23;20064;-87
2023/07/05 21:08:46;;;;;;;4.45;2.00;;;;;;;;;;6206457;23;20330;-88
2023/07/05 21:11:12;;;;;;;4.15;1.48;;;;;;;;;;6205587;23;20041;-88
2023/07/05 21:13:38;;;;;;;2.80;2.15;;;;;;;;;;6206915;23;20082;-88
2023/07/05 21:16:09;;;;;;;2.17;1.70;;;;;;;;;;6206545;23;20509;-88
2023/07/05 21:18:35;;;;;;;2.88;1.75;;;;;;;;;;6211364;23;20020;-88
2023/07/05 21:21:01;;;;;;;2.25;1.52;;;;;;;;;;6208294;23;20395;-88
2023/07/05 21:23:28;;;;;;;2.38;1.70;;;;;;;;;;6207152;23;20017;-88
2023/07/05 21:25:54;;;;;;;2.30;1.60;;;;;;;;;;6206442;23;20062;-88
2023/07/05 21:28:21;;;;;;;2.80;1.50;;;;;;;;;;6208835;23;20044;-88
2023/07/05 21:30:50;;;;;;;2.05;1.70;;;;;;;;;;6208323;23;20430;-88